createdAt,value
2019-04-21T00:00:25.994Z,4.29
2019-04-21T00:02:59.618Z,4.42
2019-04-21T00:05:49.933Z,4.29
2019-04-21T00:08:35.096Z,4.30
2019-04-21T00:10:56.743Z,4.29
2019-04-21T00:13:18.526Z,4.35
2019-04-21T00:15:45.817Z,4.12
2019-04-21T00:18:23.295Z,4.20
2019-04-21T00:20:58.000Z,4.08
2019-04-21T00:23:41.217Z,4.04
2019-04-21T00:26:09.034Z,4.01
2019-04-21T00:28:49.904Z,4.12
2019-04-21T00:31:15.327Z,4.12
2019-04-21T00:33:36.809Z,4.19
2019-04-21T00:36:11.452Z,4.04
2019-04-21T00:39:08.302Z,4.02
2019-04-21T00:41:29.877Z,4.07
2019-04-21T00:43:52.157Z,4.10
2019-04-21T00:46:26.725Z,4.04
2019-04-21T00:49:02.079Z,3.98
2019-04-21T00:51:51.105Z,3.99
2019-04-21T00:54:18.456Z,4.02
2019-04-21T00:56:49.624Z,3.95
2019-04-21T00:59:19.946Z,3.74
2019-04-21T01:01:47.775Z,3.76
2019-04-21T01:04:16.793Z,3.69
2019-04-21T01:06:54.462Z,3.76
2019-04-21T01:09:19.782Z,3.89
2019-04-21T01:11:59.335Z,3.83
2019-04-21T01:14:30.420Z,3.65
2019-04-21T01:16:57.720Z,3.54
2019-04-21T01:19:25.245Z,3.59
2019-04-21T01:21:38.529Z,3.39
2019-04-21T01:24:18.588Z,3.33
2019-04-21T01:26:53.702Z,3.35
2019-04-21T01:29:29.078Z,3.30
2019-04-21T01:32:10.669Z,3.22
2019-04-21T01:34:33.208Z,3.17
2019-04-21T01:37:03.962Z,3.28
2019-04-21T01:39:40.910Z,3.36
2019-04-21T01:42:09.460Z,3.46
2019-04-21T01:44:41.651Z,3.41
2019-04-21T01:47:10.152Z,3.44
2019-04-21T01:49:34.743Z,3.41
2019-04-21T01:52:25.768Z,3.37
2019-04-21T01:55:01.898Z,3.41
2019-04-21T01:57:29.411Z,3.41
2019-04-21T01:59:57.017Z,3.39
2019-04-21T02:02:36.079Z,3.39
2019-04-21T02:05:17.040Z,3.37
2019-04-21T02:07:40.657Z,3.37
2019-04-21T02:10:17.893Z,3.36
2019-04-21T02:12:44.463Z,3.31
2019-04-21T02:15:26.889Z,3.32
2019-04-21T02:17:49.380Z,3.32
2019-04-21T02:20:12.004Z,3.24
2019-04-21T02:23:07.374Z,3.16
2019-04-21T02:25:29.728Z,3.00
2019-04-21T02:27:57.591Z,2.97
2019-04-21T02:30:51.532Z,2.96
2019-04-21T02:33:09.600Z,3.01
2019-04-21T02:36:00.531Z,3.03
2019-04-21T02:38:33.829Z,2.84
2019-04-21T02:40:46.583Z,2.76
2019-04-21T02:43:19.162Z,2.75
2019-04-21T02:45:56.092Z,2.80
2019-04-21T02:48:22.636Z,2.80
2019-04-21T02:50:47.325Z,2.82
2019-04-21T02:53:35.363Z,2.91
2019-04-21T02:58:43.729Z,2.91
2019-04-21T03:01:12.469Z,2.77
2019-04-21T03:03:52.927Z,2.70
2019-04-21T03:06:25.427Z,2.65
2019-04-21T03:08:58.842Z,2.57
2019-04-21T03:11:17.636Z,2.47
2019-04-21T03:14:05.614Z,2.35
2019-04-21T03:16:32.915Z,2.45
2019-04-21T03:18:56.573Z,2.58
2019-04-21T03:21:29.069Z,2.57
2019-04-21T03:24:01.296Z,2.55
2019-04-21T03:26:40.635Z,2.58
2019-04-21T03:29:02.450Z,2.62
2019-04-21T03:39:11.883Z,2.68
2019-04-21T03:41:48.171Z,2.68
2019-04-21T03:44:16.599Z,2.51
2019-04-21T03:46:47.407Z,2.36
2019-04-21T03:49:27.979Z,2.33
2019-04-21T03:54:18.089Z,2.41
2019-04-21T03:57:14.375Z,2.30
2019-04-21T03:59:16.099Z,2.28
2019-04-21T04:02:18.543Z,2.30
2019-04-21T04:05:03.374Z,2.22
2019-04-21T04:12:35.046Z,2.22
2019-04-21T04:15:18.348Z,2.32
2019-04-21T04:20:16.414Z,2.34
2019-04-21T04:22:48.162Z,2.34
2019-04-21T04:25:21.007Z,2.40
2019-04-21T04:35:21.456Z,2.37
2019-04-21T04:37:57.444Z,2.52
2019-04-21T04:40:31.414Z,2.64
2019-04-21T04:43:14.691Z,2.81
2019-04-21T04:45:56.674Z,2.94
2019-04-21T04:48:11.471Z,3.13
2019-04-21T04:50:49.367Z,3.31
2019-04-21T04:53:26.733Z,3.39
2019-04-21T04:55:47.984Z,3.46
2019-04-21T04:58:19.249Z,3.61
2019-04-21T05:01:09.664Z,3.79
2019-04-21T05:03:37.130Z,3.96
2019-04-21T05:06:37.269Z,4.05
2019-04-21T05:09:07.847Z,4.20
2019-04-21T05:11:37.713Z,4.28
2019-04-21T05:14:03.354Z,4.43
2019-04-21T05:16:38.459Z,4.59
2019-04-21T05:23:51.165Z,5.15
2019-04-21T05:26:14.487Z,5.33
2019-04-21T05:28:47.436Z,5.48
2019-04-21T05:31:38.629Z,5.67
2019-04-21T05:34:18.486Z,5.84
2019-04-21T05:36:52.329Z,5.96
2019-04-21T05:39:24.535Z,6.21
2019-04-21T05:41:49.672Z,6.36
2019-04-21T05:44:45.546Z,6.57
2019-04-21T05:47:18.822Z,6.75
2019-04-21T05:49:36.995Z,6.89
2019-04-21T05:52:03.688Z,7.06
2019-04-21T05:57:10.128Z,7.38
2019-04-21T05:59:45.811Z,7.58
2019-04-21T06:07:25.456Z,8.18
2019-04-21T06:09:57.139Z,8.35
2019-04-21T06:12:29.548Z,8.61
2019-04-21T06:15:14.330Z,9.49
2019-04-21T06:20:02.940Z,13.73
2019-04-21T06:22:28.891Z,15.48
2019-04-21T06:27:50.770Z,17.17
2019-04-21T06:30:03.471Z,18.01
2019-04-21T06:32:47.084Z,17.04
2019-04-21T06:35:45.542Z,17.16
2019-04-21T06:38:23.434Z,17.43
2019-04-21T06:40:35.758Z,16.97
2019-04-21T06:43:11.322Z,18.18
2019-04-21T06:45:41.247Z,19.35
2019-04-21T06:48:12.203Z,18.17
2019-04-21T06:50:46.799Z,19.66
2019-04-21T06:53:16.488Z,18.48
2019-04-21T06:55:37.821Z,18.38
2019-04-21T06:58:11.270Z,18.77
2019-04-21T07:00:43.236Z,16.85
2019-04-21T07:03:20.708Z,16.71
2019-04-21T07:05:48.491Z,15.92
2019-04-21T07:08:31.301Z,15.40
2019-04-21T07:10:52.040Z,15.22
2019-04-21T07:13:22.256Z,14.92
2019-04-21T07:16:00.579Z,14.74
2019-04-21T07:18:31.071Z,14.79
2019-04-21T07:21:02.725Z,14.92
2019-04-21T07:23:30.261Z,15.06
2019-04-21T07:26:02.986Z,15.15
2019-04-21T07:28:32.244Z,15.26
2019-04-21T07:31:10.889Z,15.34
2019-04-21T07:36:09.975Z,15.49
2019-04-21T07:38:33.192Z,15.57
2019-04-21T07:41:02.124Z,15.48
2019-04-21T07:43:33.997Z,15.65
2019-04-21T07:46:06.764Z,15.79
2019-04-21T07:48:51.175Z,16.02
2019-04-21T07:51:37.806Z,16.25
2019-04-21T07:54:13.359Z,16.30
2019-04-21T07:56:28.831Z,16.48
2019-04-21T07:59:18.917Z,16.26
2019-04-21T08:01:48.404Z,16.14
2019-04-21T08:04:38.023Z,16.12
2019-04-21T08:06:49.461Z,16.49
2019-04-21T08:09:19.832Z,16.59
2019-04-21T08:11:48.656Z,16.68
2019-04-21T08:14:24.306Z,16.88
2019-04-21T08:16:57.186Z,16.84
2019-04-21T08:19:25.100Z,16.81
2019-04-21T08:22:01.051Z,16.78
2019-04-21T08:24:28.600Z,17.15
2019-04-21T08:27:05.128Z,16.95
2019-04-21T08:29:33.414Z,17.28
2019-04-21T08:34:34.665Z,17.53
2019-04-21T08:37:05.456Z,17.75
2019-04-21T08:39:49.554Z,17.84
2019-04-21T08:42:14.807Z,17.96
2019-04-21T08:47:15.391Z,17.83
2019-04-21T08:49:41.373Z,17.94
2019-04-21T08:52:28.271Z,18.09
2019-04-21T08:54:53.637Z,18.05
2019-04-21T08:57:50.849Z,18.11
2019-04-21T09:00:29.649Z,18.48
2019-04-21T09:03:02.353Z,18.14
2019-04-21T09:05:29.567Z,18.10
2019-04-21T09:08:04.045Z,18.43
2019-04-21T09:10:34.802Z,18.48
2019-04-21T09:13:04.439Z,18.57
2019-04-21T09:15:38.152Z,18.60
2019-04-21T09:18:02.842Z,18.72
2019-04-21T09:20:46.155Z,18.44
2019-04-21T09:23:13.522Z,18.75
2019-04-21T09:25:49.571Z,18.71
2019-04-21T09:28:14.045Z,19.02
2019-04-21T09:30:33.783Z,19.21
2019-04-21T09:33:01.959Z,19.14
2019-04-21T09:35:31.624Z,19.44
2019-04-21T09:38:13.404Z,19.34
2019-04-21T09:40:37.204Z,19.58
2019-04-21T09:43:08.504Z,19.44
2019-04-21T09:45:37.627Z,19.32
2019-04-21T09:48:12.426Z,19.42
2019-04-21T09:50:39.804Z,19.75
2019-04-21T09:53:20.938Z,19.96
2019-04-21T09:55:50.234Z,19.90
2019-04-21T09:58:23.958Z,19.77
2019-04-21T10:00:59.139Z,19.86
2019-04-21T10:03:19.096Z,19.73
2019-04-21T10:05:48.047Z,19.55
2019-04-21T10:08:18.834Z,19.98
2019-04-21T10:10:49.058Z,20.02
2019-04-21T10:13:19.036Z,19.93
2019-04-21T10:15:50.585Z,19.72
2019-04-21T10:18:21.937Z,19.91
2019-04-21T10:20:51.663Z,20.04
2019-04-21T10:23:21.441Z,20.04
2019-04-21T10:25:52.517Z,20.25
2019-04-21T10:28:23.304Z,20.45
2019-04-21T10:30:53.275Z,20.60
2019-04-21T10:33:24.098Z,20.55
2019-04-21T10:35:55.150Z,20.42
2019-04-21T10:38:33.216Z,20.52
2019-04-21T10:40:57.132Z,20.35
2019-04-21T10:43:27.504Z,20.04
2019-04-21T10:45:57.268Z,20.35
2019-04-21T10:48:28.402Z,20.60
2019-04-21T10:50:59.112Z,20.61
2019-04-21T10:53:36.794Z,20.80
2019-04-21T10:56:14.510Z,20.82
2019-04-21T10:58:40.514Z,20.85
2019-04-21T11:01:12.771Z,20.80
2019-04-21T11:04:00.858Z,20.86
2019-04-21T11:06:31.022Z,20.73
2019-04-21T11:09:01.959Z,20.29
2019-04-21T11:11:32.507Z,20.42
2019-04-21T11:14:02.545Z,20.86
2019-04-21T11:16:33.217Z,21.00
2019-04-21T11:19:04.031Z,21.04
2019-04-21T11:21:34.649Z,21.00
2019-04-21T11:24:06.030Z,20.91
2019-04-21T11:26:36.139Z,20.57
2019-04-21T11:29:07.261Z,20.79
2019-04-21T11:31:37.000Z,21.00
2019-04-21T11:34:07.278Z,20.97
2019-04-21T11:36:37.483Z,20.96
2019-04-21T11:39:25.656Z,20.81
2019-04-21T11:41:47.751Z,21.12
2019-04-21T11:44:18.605Z,21.08
2019-04-21T11:46:49.302Z,21.14
2019-04-21T11:49:20.049Z,21.10
2019-04-21T11:51:56.536Z,21.41
2019-04-21T11:54:26.910Z,21.62
2019-04-21T11:56:57.103Z,21.47
2019-04-21T11:59:27.980Z,21.33
2019-04-21T12:01:57.807Z,21.08
2019-04-21T12:04:27.664Z,21.18
2019-04-21T12:06:57.881Z,21.34
2019-04-21T12:09:29.219Z,20.92
2019-04-21T12:11:59.512Z,21.19
2019-04-21T12:14:30.248Z,21.54
2019-04-21T12:17:01.092Z,21.13
2019-04-21T12:19:32.570Z,21.04
2019-04-21T12:22:10.968Z,20.90
2019-04-21T12:28:19.788Z,21.38
2019-04-21T12:31:00.314Z,21.36
2019-04-21T12:33:40.483Z,21.49
2019-04-21T12:36:18.065Z,21.67
2019-04-21T12:39:01.069Z,21.77
2019-04-21T12:41:31.177Z,21.48
2019-04-21T12:44:06.663Z,21.25
2019-04-21T12:46:45.583Z,21.55
2019-04-21T12:49:20.222Z,21.66
2019-04-21T12:51:55.560Z,21.90
2019-04-21T12:54:27.855Z,21.83
2019-04-21T12:57:01.645Z,21.80
2019-04-21T12:59:39.671Z,21.92
2019-04-21T13:02:14.209Z,21.80
2019-04-21T13:04:46.212Z,21.79
2019-04-21T13:07:17.396Z,21.61
2019-04-21T13:09:48.423Z,21.50
2019-04-21T13:12:19.402Z,21.54
2019-04-21T13:14:49.634Z,21.82
2019-04-21T13:17:19.608Z,21.88
2019-04-21T13:19:49.653Z,21.80
2019-04-21T13:22:19.564Z,21.54
2019-04-21T13:24:49.651Z,21.17
2019-04-21T13:27:20.638Z,21.17
2019-04-21T13:29:50.693Z,21.13
2019-04-21T13:32:20.581Z,21.20
2019-04-21T13:34:50.950Z,21.19
2019-04-21T13:37:21.454Z,21.05
2019-04-21T13:40:24.845Z,21.08
2019-04-21T13:42:43.799Z,20.99
2019-04-21T13:45:12.177Z,20.87
2019-04-21T13:47:42.889Z,20.99
2019-04-21T13:50:13.378Z,21.13
2019-04-21T13:52:44.769Z,21.16
2019-04-21T13:55:15.867Z,21.03
2019-04-21T13:57:46.476Z,20.89
2019-04-21T14:00:17.301Z,20.85
2019-04-21T14:02:47.171Z,20.81
2019-04-21T14:05:18.167Z,20.92
2019-04-21T14:07:48.209Z,20.85
2019-04-21T14:10:19.748Z,21.01
2019-04-21T14:12:50.685Z,20.87
2019-04-21T14:15:22.450Z,20.81
2019-04-21T14:17:53.103Z,20.85
2019-04-21T14:20:24.941Z,20.73
2019-04-21T14:22:57.148Z,20.62
2019-04-21T14:25:27.851Z,20.35
2019-04-21T14:27:57.918Z,20.34
2019-04-21T14:30:28.445Z,20.32
2019-04-21T14:32:58.461Z,20.25
2019-04-21T14:35:29.375Z,20.23
2019-04-21T14:38:00.647Z,20.29
2019-04-21T14:40:33.201Z,20.27
2019-04-21T14:43:02.621Z,20.24
2019-04-21T14:45:43.449Z,20.04
2019-04-21T14:48:32.802Z,20.11
2019-04-21T14:51:07.343Z,20.12
2019-04-21T14:53:45.634Z,19.88
2019-04-21T14:56:15.731Z,19.83
2019-04-21T14:58:46.858Z,19.87
2019-04-21T15:01:17.819Z,19.89
2019-04-21T15:03:47.968Z,19.82
2019-04-21T15:06:18.956Z,19.90
2019-04-21T15:08:49.246Z,19.82
2019-04-21T15:11:20.046Z,20.02
2019-04-21T15:13:51.381Z,19.85
2019-04-21T15:16:22.539Z,19.96
2019-04-21T15:18:52.849Z,19.83
2019-04-21T15:21:23.573Z,19.64
2019-04-21T15:23:54.146Z,19.55
2019-04-21T15:26:24.199Z,19.65
2019-04-21T15:28:54.963Z,19.60
2019-04-21T15:31:32.082Z,19.60
2019-04-21T15:33:59.183Z,19.80
2019-04-21T15:36:33.451Z,19.71
2019-04-21T15:39:03.622Z,19.58
2019-04-21T15:41:34.408Z,19.52
2019-04-21T15:44:06.085Z,19.53
2019-04-21T15:46:36.028Z,19.36
2019-04-21T15:49:06.997Z,19.46
2019-04-21T15:51:38.019Z,19.32
2019-04-21T15:54:08.843Z,19.27
2019-04-21T15:56:44.771Z,19.19
2019-04-21T15:59:22.375Z,19.06
2019-04-21T16:01:54.620Z,19.16
2019-04-21T16:04:25.126Z,19.08
2019-04-21T16:06:55.496Z,18.99
2019-04-21T16:09:27.746Z,19.14
2019-04-21T16:11:57.943Z,19.13
2019-04-21T16:14:29.017Z,19.01
2019-04-21T16:16:59.187Z,18.94
2019-04-21T16:19:29.420Z,18.89
2019-04-21T16:21:59.228Z,19.01
2019-04-21T16:24:29.169Z,18.73
2019-04-21T16:27:01.685Z,18.67
2019-04-21T16:29:31.206Z,18.84
2019-04-21T16:32:01.697Z,18.80
2019-04-21T16:34:41.367Z,18.69
2019-04-21T16:37:03.602Z,18.69
2019-04-21T16:39:33.661Z,18.56
2019-04-21T16:42:03.459Z,18.58
2019-04-21T16:44:34.670Z,18.52
2019-04-21T16:47:05.742Z,18.40
2019-04-21T16:49:35.894Z,18.31
2019-04-21T16:52:18.276Z,18.28
2019-04-21T16:54:49.953Z,18.20
2019-04-21T16:57:24.098Z,18.11
2019-04-21T16:59:56.754Z,18.15
2019-04-21T17:02:28.289Z,18.02
2019-04-21T17:04:58.212Z,18.05
2019-04-21T17:07:28.256Z,18.02
2019-04-21T17:09:58.918Z,18.07
2019-04-21T17:12:30.538Z,18.00
2019-04-21T17:15:13.874Z,17.97
2019-04-21T17:17:51.416Z,17.96
2019-04-21T17:20:17.188Z,17.74
2019-04-21T17:22:35.510Z,17.84
2019-04-21T17:25:08.631Z,17.72
2019-04-21T17:27:39.013Z,17.58
2019-04-21T17:30:10.711Z,17.68
2019-04-21T17:32:46.952Z,17.58
2019-04-21T17:35:12.481Z,17.62
2019-04-21T17:37:42.429Z,17.43
2019-04-21T17:40:13.789Z,17.42
2019-04-21T17:42:51.099Z,17.39
2019-04-21T17:45:15.362Z,17.57
2019-04-21T17:47:52.346Z,17.28
2019-04-21T17:50:20.558Z,17.19
2019-04-21T17:53:06.485Z,17.11
2019-04-21T17:55:37.413Z,17.07
2019-04-21T17:58:25.025Z,16.89
2019-04-21T18:01:13.907Z,16.89
2019-04-21T18:03:45.691Z,16.85
2019-04-21T18:06:03.733Z,16.73
2019-04-21T18:08:40.499Z,16.62
2019-04-21T18:11:03.328Z,16.59
2019-04-21T18:13:26.546Z,16.50
2019-04-21T18:16:09.738Z,16.33
2019-04-21T18:18:28.637Z,16.14
2019-04-21T18:21:07.036Z,16.09
2019-04-21T18:23:50.573Z,16.08
2019-04-21T18:26:27.130Z,16.22
2019-04-21T18:28:44.608Z,15.83
2019-04-21T18:31:14.865Z,15.93
2019-04-21T18:33:47.850Z,15.80
2019-04-21T18:36:29.085Z,15.56
2019-04-21T18:39:09.775Z,15.51
2019-04-21T18:41:32.271Z,15.41
2019-04-21T18:44:32.169Z,15.24
2019-04-21T18:47:06.927Z,15.21
2019-04-21T18:49:19.509Z,15.08
2019-04-21T18:52:02.841Z,15.10
2019-04-21T18:54:47.100Z,14.97
2019-04-21T18:57:08.105Z,14.85
2019-04-21T18:59:36.109Z,14.97
2019-04-21T19:02:08.069Z,14.86
2019-04-21T19:04:37.074Z,14.74
2019-04-21T19:07:19.858Z,14.55
2019-04-21T19:12:47.622Z,14.47
2019-04-21T19:14:56.302Z,14.52
2019-04-21T19:18:05.382Z,14.49
2019-04-21T19:20:07.669Z,14.48
2019-04-21T19:22:34.475Z,14.48
2019-04-21T19:25:04.803Z,14.36
2019-04-21T19:27:32.426Z,14.36
2019-04-21T19:30:28.832Z,14.21
2019-04-21T19:32:33.474Z,14.05
2019-04-21T19:34:59.518Z,13.92
2019-04-21T19:37:28.225Z,13.82
2019-04-21T19:40:07.793Z,13.68
2019-04-21T19:42:37.574Z,13.46
2019-04-21T19:45:19.064Z,13.38
2019-04-21T19:47:48.789Z,13.21
2019-04-21T19:50:26.387Z,13.13
2019-04-21T19:52:55.582Z,12.93
2019-04-21T19:55:16.190Z,12.82
2019-04-21T19:57:47.077Z,12.77
2019-04-21T20:00:17.856Z,12.64
2019-04-21T20:02:50.292Z,12.51
2019-04-21T20:05:30.409Z,12.38
2019-04-21T20:08:08.277Z,12.23
2019-04-21T20:10:44.456Z,12.10
2019-04-21T20:13:14.477Z,11.97
2019-04-21T20:15:45.421Z,11.89
2019-04-21T20:18:07.070Z,11.73
2019-04-21T20:20:30.987Z,11.70
2019-04-21T20:23:01.295Z,11.57
2019-04-21T20:25:41.803Z,11.47
2019-04-21T20:28:09.902Z,11.43
2019-04-21T20:30:48.990Z,11.31
2019-04-21T20:36:20.103Z,11.01
2019-04-21T20:38:24.744Z,10.95
2019-04-21T20:40:51.111Z,10.63
2019-04-21T20:43:37.629Z,10.59
2019-04-21T20:46:02.409Z,10.40
2019-04-21T20:48:29.990Z,10.40
2019-04-21T20:51:05.129Z,10.23
2019-04-21T20:53:37.973Z,10.37
2019-04-21T20:56:02.310Z,10.38
2019-04-21T20:58:41.397Z,10.22
2019-04-21T21:01:25.407Z,10.23
2019-04-21T21:03:43.225Z,10.21
2019-04-21T21:06:15.823Z,10.15
2019-04-21T21:08:45.368Z,10.08
2019-04-21T21:11:22.219Z,10.13
2019-04-21T21:13:54.837Z,10.08
2019-04-21T21:19:08.209Z,9.91
2019-04-21T21:21:23.019Z,9.86
2019-04-21T21:23:54.675Z,9.84
2019-04-21T21:26:44.970Z,9.78
2019-04-21T21:28:54.691Z,9.60
2019-04-21T21:31:33.216Z,9.55
2019-04-21T21:34:25.919Z,9.58
2019-04-21T21:36:36.495Z,9.40
2019-04-21T21:39:09.538Z,9.47
2019-04-21T21:41:26.430Z,9.39
2019-04-21T21:44:00.736Z,9.37
2019-04-21T21:46:42.279Z,9.39
2019-04-21T21:49:05.179Z,9.39
2019-04-21T21:51:39.847Z,9.33
2019-04-21T21:53:59.032Z,9.25
2019-04-21T21:56:29.117Z,9.17
2019-04-21T21:59:01.247Z,9.10
2019-04-21T22:01:37.916Z,9.12
2019-04-21T22:04:11.086Z,9.09
2019-04-21T22:06:44.644Z,9.06
2019-04-21T22:09:10.584Z,9.04
2019-04-21T22:11:42.195Z,8.99
2019-04-21T22:14:22.886Z,8.96
2019-04-21T22:16:57.522Z,8.92
2019-04-21T22:19:34.104Z,8.90
2019-04-21T22:22:07.299Z,8.84
2019-04-21T22:24:35.184Z,8.79
2019-04-21T22:26:52.460Z,8.76
2019-04-21T22:29:21.611Z,8.71
2019-04-21T22:31:52.699Z,8.73
2019-04-21T22:34:29.686Z,8.71
2019-04-21T22:37:13.491Z,8.68
2019-04-21T22:39:45.932Z,8.67
2019-04-21T22:42:05.034Z,8.64
2019-04-21T22:44:30.196Z,8.58
2019-04-21T22:47:08.552Z,8.53
2019-04-21T22:49:32.604Z,8.49
2019-04-21T22:52:10.398Z,8.42
2019-04-21T22:54:39.117Z,8.38
2019-04-21T22:57:12.761Z,8.34
2019-04-21T22:59:37.553Z,8.27
2019-04-21T23:02:15.384Z,8.30
2019-04-21T23:04:45.152Z,8.32
2019-04-21T23:07:15.102Z,8.32
2019-04-21T23:09:43.215Z,8.34
2019-04-21T23:12:20.457Z,8.35
2019-04-21T23:14:52.205Z,8.30
2019-04-21T23:17:38.971Z,8.32
2019-04-21T23:20:08.911Z,8.32
2019-04-21T23:22:49.409Z,8.33
2019-04-21T23:25:09.441Z,8.35
2019-04-21T23:27:40.620Z,8.37
2019-04-21T23:30:20.247Z,8.35
2019-04-21T23:32:36.277Z,8.36
2019-04-21T23:35:02.857Z,8.40
2019-04-21T23:37:32.739Z,8.34
2019-04-21T23:40:07.542Z,8.36
2019-04-21T23:42:37.102Z,8.42
2019-04-21T23:45:05.385Z,8.44
2019-04-21T23:48:19.652Z,8.38
2019-04-21T23:50:49.459Z,8.40
2019-04-21T23:53:13.589Z,8.35
2019-04-21T23:55:43.456Z,8.34
2019-04-21T23:58:20.147Z,8.31
